createdAt,value
2018-07-21T00:01:08.674Z,26.95
2018-07-21T00:02:45.090Z,26.94
2018-07-21T00:04:22.064Z,26.90
2018-07-21T00:05:59.432Z,26.89
2018-07-21T00:07:38.144Z,26.87
2018-07-21T00:09:19.178Z,26.85
2018-07-21T00:10:57.153Z,26.82
2018-07-21T00:12:36.567Z,26.82
2018-07-21T00:14:13.836Z,26.89
2018-07-21T00:15:51.567Z,26.85
2018-07-21T00:17:30.078Z,26.85
2018-07-21T00:19:07.560Z,26.72
2018-07-21T00:20:44.571Z,26.49
2018-07-21T00:22:24.840Z,26.38
2018-07-21T00:24:04.330Z,26.27
2018-07-21T00:25:42.976Z,26.22
2018-07-21T00:27:24.957Z,26.13
2018-07-21T00:29:01.842Z,26.01
2018-07-21T00:30:38.500Z,26.09
2018-07-21T00:32:15.436Z,26.17
2018-07-21T00:33:52.790Z,26.16
2018-07-21T00:35:42.352Z,25.96
2018-07-21T00:37:25.678Z,25.94
2018-07-21T00:39:02.023Z,25.96
2018-07-21T00:40:39.658Z,25.89
2018-07-21T00:42:16.618Z,25.78
2018-07-21T00:43:56.303Z,25.65
2018-07-21T00:45:34.266Z,25.62
2018-07-21T00:47:10.742Z,25.47
2018-07-21T00:48:47.876Z,25.50
2018-07-21T00:50:25.093Z,25.66
2018-07-21T00:52:01.552Z,25.74
2018-07-21T00:53:39.414Z,25.76
2018-07-21T00:55:17.709Z,25.74
2018-07-21T00:56:55.433Z,25.90
2018-07-21T00:58:32.134Z,25.97
2018-07-21T01:00:08.826Z,25.88
2018-07-21T01:01:45.758Z,26.04
2018-07-21T01:03:23.419Z,26.03
2018-07-21T01:05:00.922Z,26.09
2018-07-21T01:06:37.499Z,26.18
2018-07-21T01:08:14.256Z,26.06
2018-07-21T01:09:54.252Z,26.03
2018-07-21T01:11:30.720Z,26.29
2018-07-21T01:13:08.611Z,26.31
2018-07-21T01:14:49.751Z,26.40
2018-07-21T01:16:27.300Z,26.38
2018-07-21T01:18:08.229Z,26.40
2018-07-21T01:19:44.539Z,26.47
2018-07-21T01:21:24.420Z,26.34
2018-07-21T01:23:12.066Z,26.38
2018-07-21T01:24:49.206Z,26.37
2018-07-21T01:26:26.442Z,26.39
2018-07-21T01:28:03.841Z,26.43
2018-07-21T01:29:40.313Z,25.98
2018-07-21T01:31:18.388Z,25.54
2018-07-21T01:32:57.212Z,25.22
2018-07-21T01:34:34.163Z,25.08
2018-07-21T01:36:10.577Z,24.89
2018-07-21T01:37:48.518Z,24.86
2018-07-21T01:39:41.942Z,24.77
2018-07-21T01:41:47.895Z,24.57
2018-07-21T01:43:33.426Z,24.40
2018-07-21T01:45:13.268Z,24.33
2018-07-21T01:46:55.964Z,24.36
2018-07-21T01:48:52.015Z,24.40
2018-07-21T01:50:36.510Z,24.44
2018-07-21T01:52:16.567Z,24.48
2018-07-21T01:53:57.829Z,24.54
2018-07-21T01:55:34.145Z,24.49
2018-07-21T01:57:12.137Z,24.44
2018-07-21T01:58:49.069Z,24.36
2018-07-21T02:00:28.031Z,24.24
2018-07-21T02:02:05.444Z,24.14
2018-07-21T02:03:47.324Z,24.12
2018-07-21T02:05:24.829Z,24.14
2018-07-21T02:07:01.301Z,24.22
2018-07-21T02:08:38.755Z,24.30
2018-07-21T02:10:15.510Z,24.27
2018-07-21T02:11:52.153Z,24.31
2018-07-21T02:13:28.652Z,24.24
2018-07-21T02:15:06.627Z,24.25
2018-07-21T02:16:43.491Z,24.24
2018-07-21T02:18:19.942Z,24.17
2018-07-21T02:19:56.472Z,23.83
2018-07-21T02:21:34.305Z,23.51
2018-07-21T02:23:10.733Z,23.41
2018-07-21T02:24:48.843Z,23.11
2018-07-21T02:26:25.314Z,22.87
2018-07-21T02:28:02.136Z,22.78
2018-07-21T02:29:39.114Z,22.64
2018-07-21T02:31:16.882Z,22.54
2018-07-21T02:32:54.515Z,22.46
2018-07-21T02:34:33.252Z,22.29
2018-07-21T02:36:10.609Z,22.15
2018-07-21T02:37:50.934Z,22.12
2018-07-21T02:39:32.659Z,22.20
2018-07-21T02:41:10.642Z,22.35
2018-07-21T02:42:48.535Z,22.46
2018-07-21T02:44:29.969Z,22.55
2018-07-21T02:46:20.982Z,22.89
2018-07-21T02:47:57.297Z,23.29
2018-07-21T02:49:34.198Z,23.68
2018-07-21T02:51:10.671Z,23.93
2018-07-21T02:52:48.064Z,24.12
2018-07-21T02:54:25.122Z,24.22
2018-07-21T02:56:03.892Z,24.24
2018-07-21T02:57:41.304Z,24.35
2018-07-21T02:59:21.072Z,24.47
2018-07-21T03:00:58.659Z,24.51
2018-07-21T03:02:35.194Z,24.43
2018-07-21T03:04:15.755Z,24.30
2018-07-21T03:05:53.932Z,24.06
2018-07-21T03:07:39.894Z,23.85
2018-07-21T03:09:19.720Z,24.09
2018-07-21T03:11:05.339Z,24.29
2018-07-21T03:12:45.304Z,24.54
2018-07-21T03:14:30.109Z,24.75
2018-07-21T03:16:15.091Z,24.90
2018-07-21T03:17:53.086Z,24.97
2018-07-21T03:19:35.793Z,25.08
2018-07-21T03:21:13.135Z,25.08
2018-07-21T03:22:50.841Z,24.59
2018-07-21T03:24:29.467Z,24.23
2018-07-21T03:26:10.252Z,23.94
2018-07-21T03:29:56.169Z,23.67
2018-07-21T03:31:46.070Z,22.91
2018-07-21T03:33:31.624Z,23.19
2018-07-21T03:35:12.655Z,23.56
2018-07-21T03:36:56.474Z,23.82
2018-07-21T03:38:47.201Z,23.93
2018-07-21T03:40:32.097Z,24.06
2018-07-21T03:42:17.316Z,24.17
2018-07-21T03:44:07.119Z,24.36
2018-07-21T03:45:44.765Z,24.33
2018-07-21T03:47:21.709Z,24.37
2018-07-21T03:48:58.193Z,24.56
2018-07-21T03:50:35.965Z,24.48
2018-07-21T03:52:13.878Z,24.26
2018-07-21T03:53:50.603Z,23.81
2018-07-21T03:55:27.605Z,23.70
2018-07-21T03:57:03.962Z,23.70
2018-07-21T03:58:40.541Z,23.93
2018-07-21T04:00:18.414Z,24.18
2018-07-21T04:01:54.733Z,24.25
2018-07-21T04:03:31.097Z,24.26
2018-07-21T04:05:10.789Z,24.05
2018-07-21T04:06:47.227Z,23.80
2018-07-21T04:08:23.486Z,23.63
2018-07-21T04:10:00.131Z,23.73
2018-07-21T04:11:36.945Z,23.88
2018-07-21T04:13:13.262Z,24.04
2018-07-21T04:14:50.494Z,24.29
2018-07-21T04:16:27.027Z,24.55
2018-07-21T04:18:05.312Z,24.47
2018-07-21T04:19:42.077Z,24.37
2018-07-21T04:21:18.413Z,24.27
2018-07-21T04:22:54.744Z,24.20
2018-07-21T04:24:31.000Z,24.37
2018-07-21T04:26:07.997Z,24.57
2018-07-21T04:27:44.733Z,24.61
2018-07-21T04:29:22.066Z,24.56
2018-07-21T04:31:06.880Z,24.11
2018-07-21T04:32:44.002Z,23.53
2018-07-21T04:34:30.017Z,23.12
2018-07-21T04:36:22.052Z,22.95
2018-07-21T04:38:02.731Z,22.79
2018-07-21T04:39:48.534Z,22.75
2018-07-21T04:41:28.605Z,22.93
2018-07-21T04:43:10.800Z,22.96
2018-07-21T04:44:47.354Z,22.79
2018-07-21T04:46:25.759Z,22.62
2018-07-21T04:48:05.346Z,22.58
2018-07-21T04:49:43.309Z,22.65
2018-07-21T04:51:22.752Z,22.83
2018-07-21T04:53:00.431Z,23.33
2018-07-21T04:54:39.637Z,23.83
2018-07-21T04:56:16.494Z,24.17
2018-07-21T04:58:00.427Z,24.35
2018-07-21T04:59:37.962Z,24.32
2018-07-21T05:01:17.061Z,23.81
2018-07-21T05:03:01.881Z,23.44
2018-07-21T05:04:44.819Z,23.23
2018-07-21T05:06:24.962Z,23.17
2018-07-21T05:08:06.981Z,23.00
2018-07-21T05:09:43.373Z,22.87
2018-07-21T05:11:19.652Z,22.97
2018-07-21T05:12:57.677Z,23.03
2018-07-21T05:14:34.861Z,23.13
2018-07-21T05:16:11.718Z,23.31
2018-07-21T05:17:53.137Z,23.39
2018-07-21T05:19:32.379Z,23.49
2018-07-21T05:21:12.293Z,23.66
2018-07-21T05:22:50.255Z,23.79
2018-07-21T05:24:28.404Z,23.92
2018-07-21T05:26:09.564Z,23.89
2018-07-21T05:27:47.874Z,23.75
2018-07-21T05:29:27.066Z,24.06
2018-07-21T05:31:05.692Z,24.22
2018-07-21T05:32:46.073Z,24.43
2018-07-21T05:34:38.771Z,24.63
2018-07-21T05:36:20.601Z,25.23
2018-07-21T05:38:00.783Z,25.56
2018-07-21T05:39:51.296Z,25.86
2018-07-21T05:41:30.372Z,25.93
2018-07-21T05:43:08.249Z,26.12
2018-07-21T05:44:44.676Z,26.26
2018-07-21T05:46:21.170Z,26.52
2018-07-21T05:47:58.083Z,26.80
2018-07-21T05:49:37.713Z,26.96
2018-07-21T05:51:14.100Z,27.08
2018-07-21T05:52:50.458Z,27.18
2018-07-21T05:56:03.466Z,27.66
2018-07-21T05:57:40.039Z,27.84
2018-07-21T05:59:22.202Z,28.02
2018-07-21T06:01:05.305Z,27.81
2018-07-21T06:02:54.929Z,28.10
2018-07-21T06:04:38.839Z,28.12
2018-07-21T06:06:21.138Z,27.89
2018-07-21T06:07:59.834Z,27.60
2018-07-21T06:09:39.910Z,27.56
2018-07-21T06:11:25.973Z,27.30
2018-07-21T06:13:05.440Z,27.19
2018-07-21T06:14:48.937Z,27.23
2018-07-21T06:18:38.454Z,27.49
2018-07-21T06:20:29.693Z,27.50
2018-07-21T06:22:07.229Z,27.36
2018-07-21T06:24:00.569Z,27.44
2018-07-21T06:25:51.309Z,27.67
2018-07-21T06:27:33.660Z,27.82
2018-07-21T06:29:15.298Z,27.76
2018-07-21T06:30:58.448Z,27.92
2018-07-21T06:32:44.103Z,28.03
2018-07-21T06:36:32.064Z,27.44
2018-07-21T06:39:10.623Z,27.23
2018-07-21T06:43:17.041Z,27.02
2018-07-21T06:45:26.627Z,26.96
2018-07-21T06:47:30.055Z,26.80
2018-07-21T06:51:47.948Z,26.52
2018-07-21T06:53:25.931Z,27.01
2018-07-21T06:55:02.721Z,27.36
2018-07-21T06:56:39.342Z,27.57
2018-07-21T06:58:15.789Z,27.24
2018-07-21T06:59:52.832Z,27.16
2018-07-21T07:01:29.336Z,27.43
2018-07-21T07:03:06.494Z,27.89
2018-07-21T07:04:42.966Z,28.05
2018-07-21T07:06:20.528Z,27.34
2018-07-21T07:07:57.720Z,26.94
2018-07-21T07:09:34.061Z,27.10
2018-07-21T07:11:11.143Z,27.64
2018-07-21T07:12:48.135Z,27.94
2018-07-21T07:14:25.644Z,28.11
2018-07-21T07:20:23.317Z,28.35
2018-07-21T07:22:01.316Z,28.10
2018-07-21T07:23:39.424Z,28.18
2018-07-21T07:25:16.417Z,28.34
2018-07-21T07:26:54.578Z,28.57
2018-07-21T07:28:40.708Z,28.70
2018-07-21T07:30:17.378Z,28.77
2018-07-21T07:31:55.374Z,28.90
2018-07-21T07:33:33.425Z,28.96
2018-07-21T07:35:10.378Z,28.99
2018-07-21T07:36:47.834Z,29.19
2018-07-21T07:38:31.519Z,29.27
2018-07-21T07:40:15.615Z,29.26
2018-07-21T07:42:01.765Z,29.27
2018-07-21T07:43:52.835Z,29.36
2018-07-21T07:45:39.296Z,29.47
2018-07-21T07:47:18.609Z,29.73
2018-07-21T07:48:54.961Z,29.74
2018-07-21T07:50:41.138Z,29.52
2018-07-21T07:52:18.708Z,29.20
2018-07-21T07:53:55.672Z,29.11
2018-07-21T07:55:35.309Z,29.46
2018-07-21T07:57:13.664Z,29.87
2018-07-21T07:58:50.008Z,30.35
2018-07-21T08:00:28.058Z,30.38
2018-07-21T08:02:13.688Z,29.99
2018-07-21T08:03:52.008Z,29.98
2018-07-21T08:05:32.401Z,30.39
2018-07-21T08:07:09.376Z,30.51
2018-07-21T08:08:46.112Z,30.33
2018-07-21T08:10:29.810Z,29.84
2018-07-21T08:12:06.122Z,29.61
2018-07-21T08:13:49.669Z,29.54
2018-07-21T08:15:30.953Z,29.62
2018-07-21T08:17:07.980Z,30.04
2018-07-21T08:18:46.934Z,29.77
2018-07-21T08:20:23.950Z,29.58
2018-07-21T08:22:06.787Z,29.68
2018-07-21T08:23:44.867Z,29.93
2018-07-21T08:25:21.273Z,30.08
2018-07-21T08:27:01.224Z,30.27
2018-07-21T08:28:38.941Z,30.45
2018-07-21T08:30:16.793Z,30.36
2018-07-21T08:31:53.615Z,30.26
2018-07-21T08:33:30.828Z,30.47
2018-07-21T08:35:08.641Z,30.81
2018-07-21T08:36:44.994Z,30.92
2018-07-21T08:38:22.219Z,31.07
2018-07-21T08:40:00.048Z,31.17
2018-07-21T08:41:42.936Z,30.99
2018-07-21T08:43:20.417Z,30.60
2018-07-21T08:44:56.851Z,30.35
2018-07-21T08:46:34.240Z,30.32
2018-07-21T08:48:14.018Z,30.11
2018-07-21T08:49:50.506Z,30.20
2018-07-21T08:51:30.427Z,30.11
2018-07-21T08:53:15.742Z,29.99
2018-07-21T08:54:54.524Z,29.88
2018-07-21T08:56:32.568Z,29.85
2018-07-21T08:58:12.297Z,29.76
2018-07-21T08:59:51.256Z,29.73
2018-07-21T09:01:28.169Z,29.65
2018-07-21T09:03:05.896Z,29.82
2018-07-21T09:04:49.947Z,29.87
2018-07-21T09:06:36.917Z,30.14
2018-07-21T09:08:25.193Z,30.38
2018-07-21T09:10:06.425Z,30.67
2018-07-21T09:11:50.065Z,30.78
2018-07-21T09:13:31.096Z,30.71
2018-07-21T09:15:19.730Z,30.66
2018-07-21T09:16:59.369Z,30.76
2018-07-21T09:19:46.465Z,31.07
2018-07-21T09:21:25.878Z,30.89
2018-07-21T09:23:07.302Z,31.01
2018-07-21T09:26:36.915Z,31.33
2018-07-21T09:28:21.027Z,31.12
2018-07-21T09:30:06.595Z,31.10
2018-07-21T09:31:49.569Z,31.09
2018-07-21T09:33:26.726Z,31.22
2018-07-21T09:35:04.456Z,31.00
2018-07-21T09:36:54.035Z,30.89
2018-07-21T09:38:35.252Z,30.82
2018-07-21T09:40:11.908Z,30.65
2018-07-21T09:41:49.689Z,30.79
2018-07-21T09:43:26.533Z,30.83
2018-07-21T09:45:08.103Z,30.88
2018-07-21T09:46:45.450Z,31.03
2018-07-21T09:48:25.648Z,31.30
2018-07-21T09:50:09.636Z,31.42
2018-07-21T09:51:49.304Z,31.28
2018-07-21T09:53:28.153Z,31.24
2018-07-21T09:55:10.826Z,31.20
2018-07-21T09:56:50.264Z,31.10
2018-07-21T09:58:35.297Z,31.31
2018-07-21T10:00:42.692Z,31.13
2018-07-21T10:02:21.468Z,31.05
2018-07-21T10:03:58.142Z,31.05
2018-07-21T10:05:42.555Z,31.17
2018-07-21T10:07:20.338Z,31.29
2018-07-21T10:08:59.083Z,31.39
2018-07-21T10:10:37.949Z,31.47
2018-07-21T10:12:18.522Z,31.26
2018-07-21T10:14:00.206Z,31.36
2018-07-21T10:15:38.859Z,31.15
2018-07-21T10:17:16.546Z,31.10
2018-07-21T10:18:57.397Z,31.37
2018-07-21T10:20:37.147Z,31.41
2018-07-21T10:22:14.433Z,31.51
2018-07-21T10:23:55.932Z,31.36
2018-07-21T10:25:40.854Z,31.08
2018-07-21T10:27:22.838Z,31.26
2018-07-21T10:29:09.682Z,31.51
2018-07-21T10:30:48.607Z,31.57
2018-07-21T10:32:31.167Z,31.53
2018-07-21T10:34:12.591Z,31.39
2018-07-21T10:35:50.228Z,31.43
2018-07-21T10:37:28.012Z,31.61
2018-07-21T10:39:16.210Z,31.64
2018-07-21T10:40:55.666Z,31.82
2018-07-21T10:42:34.294Z,31.31
2018-07-21T10:44:12.264Z,31.09
2018-07-21T10:45:51.293Z,31.29
2018-07-21T10:47:30.222Z,31.77
2018-07-21T10:49:09.190Z,32.00
2018-07-21T10:50:51.768Z,32.12
2018-07-21T10:52:31.775Z,32.08
2018-07-21T10:54:09.465Z,31.80
2018-07-21T10:55:47.046Z,31.43
2018-07-21T10:57:28.521Z,31.46
2018-07-21T11:00:47.143Z,31.16
2018-07-21T11:02:38.504Z,31.18
2018-07-21T11:04:34.691Z,31.21
2018-07-21T11:06:16.607Z,31.27
2018-07-21T11:07:55.000Z,31.27
2018-07-21T11:09:32.799Z,31.21
2018-07-21T11:11:17.118Z,31.24
2018-07-21T11:13:04.441Z,31.19
2018-07-21T11:15:13.674Z,31.12
2018-07-21T11:16:54.041Z,30.99
2018-07-21T11:18:37.464Z,30.75
2018-07-21T11:20:21.176Z,30.69
2018-07-21T11:22:01.470Z,30.44
2018-07-21T11:23:49.660Z,30.38
2018-07-21T11:27:59.242Z,30.08
2018-07-21T11:29:39.188Z,30.58
2018-07-21T11:31:25.653Z,31.02
2018-07-21T11:33:04.243Z,31.31
2018-07-21T11:34:43.352Z,31.39
2018-07-21T11:36:23.426Z,31.43
2018-07-21T11:38:01.577Z,31.65
2018-07-21T11:39:39.452Z,31.59
2018-07-21T11:41:17.495Z,31.80
2018-07-21T11:42:56.692Z,31.92
2018-07-21T11:44:33.124Z,31.99
2018-07-21T11:46:09.996Z,32.29
2018-07-21T11:47:47.524Z,32.37
2018-07-21T11:49:25.696Z,32.25
2018-07-21T11:51:10.655Z,32.35
2018-07-21T11:52:48.038Z,32.39
2018-07-21T11:54:25.363Z,32.40
2018-07-21T11:56:02.592Z,32.40
2018-07-21T11:57:39.818Z,32.36
2018-07-21T11:59:18.735Z,32.26
2018-07-21T12:00:57.736Z,32.04
2018-07-21T12:02:36.053Z,32.03
2018-07-21T12:04:13.227Z,31.95
2018-07-21T12:05:54.453Z,31.90
2018-07-21T12:07:34.436Z,31.90
2018-07-21T12:09:15.529Z,31.90
2018-07-21T12:10:54.069Z,31.81
2018-07-21T12:12:32.760Z,31.52
2018-07-21T12:14:12.560Z,31.47
2018-07-21T12:15:50.406Z,31.36
2018-07-21T12:17:27.496Z,31.36
2018-07-21T12:19:05.387Z,31.32
2018-07-21T12:20:43.231Z,31.63
2018-07-21T12:22:20.694Z,31.73
2018-07-21T12:23:57.013Z,31.69
2018-07-21T12:25:49.713Z,31.64
2018-07-21T12:27:34.582Z,31.74
2018-07-21T12:29:14.597Z,31.87
2018-07-21T12:30:53.895Z,31.96
2018-07-21T12:32:38.531Z,31.88
2018-07-21T12:34:18.665Z,31.87
2018-07-21T12:35:56.774Z,31.70
2018-07-21T12:37:40.114Z,31.58
2018-07-21T12:39:16.803Z,31.55
2018-07-21T12:40:54.575Z,31.40
2018-07-21T12:42:32.165Z,31.32
2018-07-21T12:44:08.424Z,31.44
2018-07-21T12:45:47.115Z,31.43
2018-07-21T12:47:23.927Z,31.38
2018-07-21T12:49:03.819Z,31.04
2018-07-21T12:50:42.511Z,30.70
2018-07-21T12:52:20.773Z,30.31
2018-07-21T12:54:01.784Z,30.57
2018-07-21T12:55:40.988Z,30.62
2018-07-21T12:57:19.156Z,31.06
2018-07-21T12:58:57.785Z,31.25
2018-07-21T13:00:35.329Z,30.95
2018-07-21T13:02:16.136Z,31.08
2018-07-21T13:03:58.426Z,31.49
2018-07-21T13:05:43.225Z,31.70
2018-07-21T13:07:21.419Z,31.84
2018-07-21T13:09:03.154Z,32.02
2018-07-21T13:10:41.947Z,32.25
2018-07-21T13:12:19.614Z,32.42
2018-07-21T13:14:01.964Z,32.42
2018-07-21T13:15:40.961Z,32.21
2018-07-21T13:17:18.288Z,32.28
2018-07-21T13:18:55.317Z,32.32
2018-07-21T13:20:33.480Z,32.47
2018-07-21T13:22:13.948Z,32.64
2018-07-21T13:23:52.712Z,32.35
2018-07-21T13:25:33.458Z,32.42
2018-07-21T13:27:13.684Z,32.56
2018-07-21T13:28:53.984Z,32.83
2018-07-21T13:30:31.540Z,32.26
2018-07-21T13:32:08.972Z,31.46
2018-07-21T13:33:47.835Z,31.54
2018-07-21T13:35:24.197Z,31.98
2018-07-21T13:37:01.514Z,32.29
2018-07-21T13:38:45.088Z,32.15
2018-07-21T13:40:34.420Z,32.19
2018-07-21T13:42:20.243Z,32.64
2018-07-21T13:44:00.732Z,32.89
2018-07-21T13:45:37.474Z,32.86
2018-07-21T13:47:16.145Z,32.73
2018-07-21T13:48:57.308Z,32.61
2018-07-21T13:50:36.222Z,32.59
2018-07-21T13:52:15.309Z,32.61
2018-07-21T13:53:53.990Z,32.64
2018-07-21T13:55:32.171Z,32.71
2018-07-21T13:57:14.128Z,32.76
2018-07-21T13:58:51.802Z,32.85
2018-07-21T14:00:31.195Z,32.94
2018-07-21T14:04:01.360Z,32.92
2018-07-21T14:05:41.518Z,32.96
2018-07-21T14:07:20.074Z,33.00
2018-07-21T14:09:00.503Z,32.97
2018-07-21T14:10:39.429Z,32.85
2018-07-21T14:12:15.859Z,32.82
2018-07-21T14:13:52.703Z,32.83
2018-07-21T14:15:36.274Z,32.78
2018-07-21T14:17:18.821Z,32.80
2018-07-21T14:18:58.535Z,32.71
2018-07-21T14:20:36.679Z,32.70
2018-07-21T14:22:14.841Z,32.80
2018-07-21T14:23:54.011Z,32.78
2018-07-21T14:25:35.071Z,32.81
2018-07-21T14:27:17.804Z,32.92
2018-07-21T14:28:59.551Z,33.14
2018-07-21T14:30:41.153Z,33.26
2018-07-21T14:32:22.310Z,33.30
2018-07-21T14:33:59.881Z,33.23
2018-07-21T14:35:37.939Z,33.01
2018-07-21T14:37:14.836Z,33.04
2018-07-21T14:38:53.546Z,32.99
2018-07-21T14:40:34.409Z,32.94
2018-07-21T14:42:13.037Z,32.83
2018-07-21T14:43:53.781Z,32.88
2018-07-21T14:45:39.951Z,32.83
2018-07-21T14:47:23.292Z,33.02
2018-07-21T14:49:02.254Z,32.97
2018-07-21T14:50:44.835Z,33.10
2018-07-21T14:52:33.285Z,33.14
2018-07-21T14:54:12.355Z,33.30
2018-07-21T14:55:50.422Z,33.24
2018-07-21T14:57:31.393Z,33.04
2018-07-21T14:59:07.850Z,33.01
2018-07-21T15:00:53.142Z,32.89
2018-07-21T15:02:32.594Z,32.85
2018-07-21T15:04:11.370Z,32.78
2018-07-21T15:05:52.401Z,32.82
2018-07-21T15:07:30.758Z,33.05
2018-07-21T15:09:12.256Z,33.26
2018-07-21T15:11:06.889Z,33.52
2018-07-21T15:12:45.387Z,33.59
2018-07-21T15:14:55.252Z,33.54
2018-07-21T15:16:35.606Z,33.63
2018-07-21T15:18:18.568Z,33.53
2018-07-21T15:19:57.406Z,33.30
2018-07-21T15:21:47.549Z,33.13
2018-07-21T15:23:28.621Z,33.21
2018-07-21T15:25:05.754Z,33.24
2018-07-21T15:26:43.598Z,33.34
2018-07-21T15:28:20.204Z,33.39
2018-07-21T15:30:01.542Z,33.34
2018-07-21T15:31:41.712Z,33.31
2018-07-21T15:33:22.471Z,33.21
2018-07-21T15:35:00.335Z,33.26
2018-07-21T15:36:39.262Z,33.27
2018-07-21T15:38:20.708Z,33.28
2018-07-21T15:39:58.552Z,33.34
2018-07-21T15:41:35.844Z,33.44
2018-07-21T15:43:21.963Z,33.20
2018-07-21T15:45:00.001Z,32.93
2018-07-21T15:46:37.390Z,33.21
2018-07-21T15:48:14.654Z,33.40
2018-07-21T15:49:53.972Z,33.34
2018-07-21T15:51:30.589Z,33.28
2018-07-21T15:53:08.202Z,33.17
2018-07-21T15:54:45.479Z,32.70
2018-07-21T15:56:24.562Z,31.91
2018-07-21T15:58:01.574Z,31.11
2018-07-21T15:59:38.804Z,30.79
2018-07-21T16:01:18.254Z,30.40
2018-07-21T16:03:05.712Z,29.57
2018-07-21T16:04:42.938Z,29.13
2018-07-21T16:06:25.575Z,28.94
2018-07-21T16:08:04.116Z,29.07
2018-07-21T16:09:42.647Z,29.29
2018-07-21T16:11:21.561Z,29.36
2018-07-21T16:12:58.320Z,29.13
2018-07-21T16:14:34.685Z,29.01
2018-07-21T16:16:12.505Z,28.90
2018-07-21T16:17:49.263Z,28.77
2018-07-21T16:19:25.709Z,28.55
2018-07-21T16:21:04.106Z,28.41
2018-07-21T16:22:41.233Z,28.33
2018-07-21T16:24:20.068Z,28.37
2018-07-21T16:25:57.012Z,28.32
2018-07-21T16:27:35.911Z,28.44
2018-07-21T16:29:12.609Z,28.56
2018-07-21T16:30:49.170Z,28.60
2018-07-21T16:32:33.456Z,28.77
2018-07-21T16:34:09.957Z,28.83
2018-07-21T16:35:48.696Z,28.75
2018-07-21T16:37:27.293Z,28.83
2018-07-21T16:39:16.689Z,29.11
2018-07-21T16:40:53.398Z,29.09
2018-07-21T16:42:31.669Z,28.96
2018-07-21T16:44:10.219Z,28.84
2018-07-21T16:45:49.525Z,28.77
2018-07-21T16:47:28.096Z,28.69
2018-07-21T16:49:04.668Z,28.65
2018-07-21T16:50:41.038Z,28.61
2018-07-21T16:52:18.396Z,28.37
2018-07-21T16:53:57.437Z,28.33
2018-07-21T16:55:33.885Z,28.30
2018-07-21T16:57:11.631Z,28.28
2018-07-21T16:58:49.306Z,28.22
2018-07-21T17:00:27.852Z,28.20
2018-07-21T17:02:07.495Z,28.07
2018-07-21T17:03:45.356Z,28.03
2018-07-21T17:05:21.881Z,28.02
2018-07-21T17:06:58.854Z,28.06
2018-07-21T17:08:35.435Z,28.20
2018-07-21T17:10:12.689Z,28.26
2018-07-21T17:11:49.212Z,28.47
2018-07-21T17:13:26.893Z,28.59
2018-07-21T17:15:07.116Z,28.65
2018-07-21T17:16:45.302Z,28.70
2018-07-21T17:18:22.516Z,28.73
2018-07-21T17:19:59.932Z,28.79
2018-07-21T17:21:39.446Z,28.71
2018-07-21T17:23:15.969Z,28.57
2018-07-21T17:24:53.104Z,28.51
2018-07-21T17:26:32.914Z,28.45
2018-07-21T17:28:09.364Z,28.36
2018-07-21T17:29:49.467Z,28.30
2018-07-21T17:31:26.212Z,28.36
2018-07-21T17:33:05.420Z,28.30
2018-07-21T17:34:43.896Z,28.31
2018-07-21T17:36:21.836Z,28.26
2018-07-21T17:37:59.525Z,28.17
2018-07-21T17:39:42.467Z,28.07
2018-07-21T17:41:19.782Z,28.02
2018-07-21T17:42:58.512Z,28.02
2018-07-21T17:44:35.487Z,28.06
2018-07-21T17:46:14.384Z,28.06
2018-07-21T17:47:51.954Z,28.08
2018-07-21T17:49:31.486Z,28.14
2018-07-21T17:51:13.788Z,28.12
2018-07-21T17:52:55.723Z,28.20
2018-07-21T17:54:35.197Z,28.25
2018-07-21T17:56:11.528Z,28.33
2018-07-21T17:57:48.702Z,28.44
2018-07-21T17:59:26.749Z,28.42
2018-07-21T18:01:05.865Z,28.48
2018-07-21T18:02:42.471Z,28.61
2018-07-21T18:04:19.361Z,29.04
2018-07-21T18:05:58.009Z,29.16
2018-07-21T18:07:35.751Z,29.41
2018-07-21T18:09:14.860Z,29.33
2018-07-21T18:10:52.306Z,29.26
2018-07-21T18:12:29.820Z,29.04
2018-07-21T18:14:06.466Z,28.70
2018-07-21T18:15:44.193Z,28.49
2018-07-21T18:17:21.218Z,28.15
2018-07-21T18:18:59.840Z,27.91
2018-07-21T18:20:37.981Z,27.75
2018-07-21T18:22:15.546Z,27.92
2018-07-21T18:23:52.511Z,27.62
2018-07-21T18:25:30.033Z,27.00
2018-07-21T18:27:06.557Z,25.95
2018-07-21T18:28:44.667Z,25.02
2018-07-21T18:30:25.221Z,24.20
2018-07-21T18:32:01.993Z,23.41
2018-07-21T18:33:41.416Z,22.82
2018-07-21T18:35:22.278Z,22.26
2018-07-21T18:36:59.274Z,21.79
2018-07-21T18:38:38.264Z,21.70
2018-07-21T18:40:17.279Z,21.74
2018-07-21T18:41:54.934Z,21.84
2018-07-21T18:43:31.302Z,21.98
2018-07-21T18:45:09.423Z,22.02
2018-07-21T18:46:47.434Z,22.18
2018-07-21T18:48:28.498Z,22.27
2018-07-21T18:50:07.628Z,22.48
2018-07-21T18:51:46.610Z,22.58
2018-07-21T18:53:26.449Z,22.28
2018-07-21T18:55:04.276Z,21.93
2018-07-21T18:56:42.648Z,21.73
2018-07-21T18:58:25.577Z,21.67
2018-07-21T19:00:11.791Z,21.60
2018-07-21T19:01:49.495Z,21.78
2018-07-21T19:03:33.417Z,21.84
2018-07-21T19:05:18.347Z,21.75
2018-07-21T19:06:56.827Z,21.92
2018-07-21T19:08:40.321Z,21.93
2018-07-21T19:10:18.403Z,21.84
2018-07-21T19:12:01.795Z,22.11
2018-07-21T19:13:38.820Z,22.37
2018-07-21T19:17:24.041Z,22.30
2018-07-21T19:19:00.487Z,22.57
2018-07-21T19:20:46.232Z,22.79
2018-07-21T19:22:25.491Z,22.86
2018-07-21T19:24:04.098Z,22.79
2018-07-21T19:25:49.368Z,22.77
2018-07-21T19:27:32.671Z,22.95
2018-07-21T19:29:09.797Z,23.25
2018-07-21T19:30:48.612Z,23.19
2018-07-21T19:32:33.483Z,23.36
2018-07-21T19:34:13.724Z,23.61
2018-07-21T19:35:51.558Z,23.55
2018-07-21T19:37:33.161Z,23.68
2018-07-21T19:39:13.261Z,23.56
2018-07-21T19:41:00.081Z,23.65
2018-07-21T19:42:39.974Z,23.81
2018-07-21T19:44:18.614Z,23.73
2018-07-21T19:45:59.386Z,23.55
2018-07-21T19:47:39.776Z,23.39
2018-07-21T19:49:38.652Z,23.33
2018-07-21T19:51:18.885Z,23.29
2018-07-21T19:52:58.201Z,23.40
2018-07-21T19:54:36.514Z,23.50
2018-07-21T19:56:16.983Z,23.57
2018-07-21T19:57:56.204Z,23.72
2018-07-21T19:59:35.118Z,23.92
2018-07-21T20:01:13.667Z,24.14
2018-07-21T20:02:51.864Z,24.29
2018-07-21T20:04:32.310Z,24.56
2018-07-21T20:06:12.784Z,24.57
2018-07-21T20:07:49.216Z,24.40
2018-07-21T20:09:27.169Z,24.66
2018-07-21T20:11:05.839Z,24.81
2018-07-21T20:12:42.569Z,24.83
2018-07-21T20:14:21.136Z,25.13
2018-07-21T20:15:59.565Z,25.41
2018-07-21T20:17:40.933Z,25.46
2018-07-21T20:19:22.145Z,25.49
2018-07-21T20:21:03.319Z,25.23
2018-07-21T20:22:44.279Z,25.09
2018-07-21T20:24:32.356Z,25.17
2018-07-21T20:26:19.538Z,25.17
2018-07-21T20:27:58.483Z,25.11
2018-07-21T20:29:38.018Z,25.01
2018-07-21T20:31:16.400Z,24.99
2018-07-21T20:32:56.272Z,25.04
2018-07-21T20:34:38.952Z,25.25
2018-07-21T20:36:17.555Z,25.51
2018-07-21T20:37:58.954Z,25.72
2018-07-21T20:39:37.322Z,25.63
2018-07-21T20:41:18.718Z,25.49
2018-07-21T20:42:56.454Z,25.32
2018-07-21T20:44:35.982Z,25.21
2018-07-21T20:46:14.309Z,25.16
2018-07-21T20:47:53.474Z,25.09
2018-07-21T20:49:34.490Z,24.98
2018-07-21T20:51:14.298Z,24.91
2018-07-21T20:52:53.183Z,24.89
2018-07-21T20:54:33.360Z,24.98
2018-07-21T20:56:13.375Z,25.06
2018-07-21T20:57:54.657Z,25.08
2018-07-21T20:59:39.305Z,25.14
2018-07-21T21:01:27.679Z,25.19
2018-07-21T21:03:20.968Z,25.25
2018-07-21T21:05:05.675Z,25.33
2018-07-21T21:06:57.257Z,25.42
2018-07-21T21:08:37.480Z,25.58
2018-07-21T21:10:38.508Z,25.60
2018-07-21T21:12:26.306Z,25.45
2018-07-21T21:14:06.846Z,25.36
2018-07-21T21:15:43.844Z,25.52
2018-07-21T21:17:24.334Z,25.63
2018-07-21T22:01:01.168Z,24.98
2018-07-21T22:02:42.216Z,25.04
2018-07-21T22:04:22.665Z,25.18
2018-07-21T22:06:00.259Z,25.26
2018-07-21T22:07:39.716Z,25.31
2018-07-21T22:09:20.214Z,25.36
2018-07-21T22:10:56.785Z,25.60
2018-07-21T22:12:35.786Z,25.74
2018-07-21T22:14:15.388Z,25.83
2018-07-21T22:15:54.083Z,25.90
2018-07-21T22:17:35.684Z,25.92
2018-07-21T22:19:26.137Z,26.02
2018-07-21T22:21:07.448Z,25.97
2018-07-21T22:22:43.815Z,25.96
2018-07-21T22:24:24.574Z,25.99
2018-07-21T22:26:03.132Z,26.09
2018-07-21T22:27:40.567Z,26.01
2018-07-21T22:29:16.896Z,25.99
2018-07-21T22:30:56.289Z,25.96
2018-07-21T22:32:34.262Z,26.05
2018-07-21T22:34:16.584Z,26.01
2018-07-21T22:35:56.317Z,26.01
2018-07-21T22:37:33.293Z,26.06
2018-07-21T22:39:14.394Z,26.11